createdAt,value
2022-07-29T00:00:03.138Z,3.47
2022-07-29T00:02:30.594Z,2.92
2022-07-29T00:04:57.983Z,3.97
2022-07-29T00:07:25.281Z,3.38
2022-07-29T00:09:52.815Z,3.28
2022-07-29T00:12:25.518Z,4.78
2022-07-29T00:14:56.602Z,4.13
2022-07-29T00:17:24.708Z,3.55
2022-07-29T00:19:52.007Z,3.17
2022-07-29T00:22:19.328Z,3.35
2022-07-29T00:24:46.689Z,3.72
2022-07-29T00:27:13.976Z,3.22
2022-07-29T00:29:41.307Z,3.72
2022-07-29T00:32:08.641Z,2.97
2022-07-29T00:34:54.587Z,2.97
2022-07-29T00:37:21.978Z,3.47
2022-07-29T00:39:49.256Z,3.40
2022-07-29T00:42:17.457Z,3.22
2022-07-29T00:44:44.797Z,3.47
2022-07-29T00:47:12.945Z,4.10
2022-07-29T00:49:43.469Z,3.28
2022-07-29T00:52:11.690Z,3.63
2022-07-29T00:54:44.349Z,3.17
2022-07-29T00:57:12.512Z,3.40
2022-07-29T00:59:39.832Z,3.80
2022-07-29T01:02:07.190Z,3.17
2022-07-29T01:04:34.858Z,3.42
2022-07-29T01:07:05.845Z,3.30
2022-07-29T01:09:42.862Z,4.60
2022-07-29T01:12:18.766Z,3.95
2022-07-29T01:14:47.563Z,3.85
2022-07-29T01:17:35.696Z,3.25
2022-07-29T01:20:13.492Z,3.92
2022-07-29T01:22:49.941Z,3.88
2022-07-29T01:25:55.786Z,3.30
2022-07-29T01:28:38.480Z,3.33
2022-07-29T01:31:07.019Z,3.42
2022-07-29T01:33:52.064Z,4.00
2022-07-29T01:36:21.723Z,4.00
2022-07-29T01:38:54.453Z,3.72
2022-07-29T01:41:22.133Z,3.88
2022-07-29T01:44:01.539Z,3.92
2022-07-29T01:46:40.070Z,3.55
2022-07-29T01:49:16.211Z,3.40
2022-07-29T01:51:48.022Z,4.00
2022-07-29T01:54:15.590Z,3.30
2022-07-29T01:56:44.266Z,4.38
2022-07-29T01:59:12.261Z,3.50
2022-07-29T02:01:41.073Z,4.15
2022-07-29T02:04:10.795Z,3.45
2022-07-29T02:06:39.717Z,3.97
2022-07-29T02:09:08.550Z,3.78
2022-07-29T02:11:37.233Z,3.85
2022-07-29T02:14:05.753Z,4.00
2022-07-29T02:16:34.123Z,4.03
2022-07-29T02:19:02.549Z,3.50
2022-07-29T02:21:31.976Z,3.33
2022-07-29T02:24:01.454Z,3.45
2022-07-29T02:26:29.753Z,4.47
2022-07-29T02:28:58.470Z,3.80
2022-07-29T02:31:27.091Z,3.95
2022-07-29T02:33:55.767Z,3.97
2022-07-29T02:36:23.956Z,4.55
2022-07-29T02:38:52.109Z,4.32
2022-07-29T02:41:21.884Z,4.28
2022-07-29T02:43:50.467Z,3.95
2022-07-29T02:46:28.255Z,4.65
2022-07-29T02:49:16.909Z,4.45
2022-07-29T02:51:56.694Z,4.70
2022-07-29T02:54:33.295Z,4.20
2022-07-29T02:57:02.476Z,4.05
2022-07-29T02:59:33.034Z,4.40
2022-07-29T03:02:01.276Z,4.72
2022-07-29T03:04:30.299Z,4.53
2022-07-29T03:07:00.494Z,4.30
2022-07-29T03:09:28.687Z,3.88
2022-07-29T03:11:56.892Z,4.85
2022-07-29T03:14:25.040Z,4.65
2022-07-29T03:16:52.387Z,3.92
2022-07-29T03:19:21.150Z,4.20
2022-07-29T03:21:48.500Z,4.78
2022-07-29T03:24:28.632Z,4.47
2022-07-29T03:26:57.338Z,4.28
2022-07-29T03:29:24.908Z,4.28
2022-07-29T03:32:00.624Z,4.35
2022-07-29T03:34:29.964Z,4.18
2022-07-29T03:36:57.255Z,5.60
2022-07-29T03:39:26.516Z,5.70
2022-07-29T03:41:57.899Z,4.70
2022-07-29T03:44:25.672Z,4.90
2022-07-29T03:46:54.787Z,4.53
2022-07-29T03:49:23.529Z,4.75
2022-07-29T03:51:51.000Z,4.85
2022-07-29T03:54:18.590Z,4.63
2022-07-29T03:56:48.516Z,3.90
2022-07-29T03:59:17.205Z,4.30
2022-07-29T04:01:46.118Z,5.03
2022-07-29T04:04:13.840Z,4.70
2022-07-29T04:06:42.542Z,4.15
2022-07-29T04:09:10.266Z,4.03
2022-07-29T04:12:01.577Z,4.65
2022-07-29T04:14:25.760Z,4.50
2022-07-29T04:16:54.020Z,3.92
2022-07-29T04:19:21.440Z,4.45
2022-07-29T04:21:48.713Z,4.43
2022-07-29T04:24:16.331Z,5.53
2022-07-29T04:26:44.148Z,4.35
2022-07-29T04:29:12.926Z,4.20
2022-07-29T04:31:40.327Z,4.28
2022-07-29T04:34:07.778Z,4.15
2022-07-29T04:36:35.158Z,4.45
2022-07-29T04:39:02.567Z,3.92
2022-07-29T04:41:33.098Z,4.88
2022-07-29T04:44:07.159Z,4.45
2022-07-29T04:46:36.013Z,4.40
2022-07-29T04:49:04.198Z,4.05
2022-07-29T04:51:31.570Z,4.47
2022-07-29T04:53:58.914Z,4.10
2022-07-29T04:56:26.219Z,4.25
2022-07-29T04:58:53.501Z,4.40
2022-07-29T05:01:20.929Z,4.05
2022-07-29T05:03:48.484Z,4.68
2022-07-29T05:06:15.782Z,3.45
2022-07-29T05:08:43.126Z,3.80
2022-07-29T05:11:12.028Z,4.10
2022-07-29T05:13:46.167Z,3.85
2022-07-29T05:16:14.753Z,3.92
2022-07-29T05:18:42.274Z,3.55
2022-07-29T05:21:09.746Z,3.78
2022-07-29T05:23:37.023Z,3.72
2022-07-29T05:26:04.239Z,4.32
2022-07-29T05:28:34.699Z,3.78
2022-07-29T05:31:01.912Z,4.03
2022-07-29T05:33:35.464Z,2.83
2022-07-29T05:36:07.556Z,4.10
2022-07-29T05:38:35.290Z,3.20
2022-07-29T05:41:02.612Z,3.40
2022-07-29T05:43:30.615Z,4.18
2022-07-29T05:45:58.031Z,3.42
2022-07-29T05:48:25.571Z,3.63
2022-07-29T05:50:52.826Z,3.20
2022-07-29T05:53:20.865Z,3.47
2022-07-29T05:55:49.013Z,3.83
2022-07-29T05:58:16.337Z,8.20
2022-07-29T06:00:44.018Z,3.63
2022-07-29T06:03:11.717Z,3.20
2022-07-29T06:05:39.301Z,3.28
2022-07-29T06:08:08.346Z,3.38
2022-07-29T06:10:38.762Z,3.08
2022-07-29T06:13:06.284Z,3.25
2022-07-29T06:15:34.342Z,3.10
2022-07-29T06:18:02.459Z,3.03
2022-07-29T06:20:31.749Z,2.78
2022-07-29T06:22:59.406Z,3.45
2022-07-29T06:25:27.173Z,3.13
2022-07-29T06:27:54.419Z,3.30
2022-07-29T06:30:21.814Z,3.58
2022-07-29T06:32:49.236Z,2.95
2022-07-29T06:38:05.229Z,3.20
2022-07-29T06:41:04.731Z,3.03
2022-07-29T06:43:52.236Z,2.60
2022-07-29T06:46:23.138Z,2.60
2022-07-29T06:48:51.239Z,2.83
2022-07-29T06:51:22.883Z,2.63
2022-07-29T06:53:59.037Z,2.28
2022-07-29T06:56:30.070Z,2.45
2022-07-29T06:58:57.332Z,2.67
2022-07-29T07:01:24.668Z,2.60
2022-07-29T07:03:52.014Z,2.40
2022-07-29T07:06:19.310Z,2.30
2022-07-29T07:08:46.610Z,1.98
2022-07-29T07:11:13.888Z,2.72
2022-07-29T07:13:41.238Z,2.63
2022-07-29T07:16:08.446Z,2.20
2022-07-29T07:18:35.906Z,2.20
2022-07-29T07:21:03.388Z,2.38
2022-07-29T07:23:30.674Z,2.08
2022-07-29T07:25:57.961Z,2.72
2022-07-29T07:28:25.387Z,1.90
2022-07-29T07:30:53.070Z,2.40
2022-07-29T07:33:20.946Z,2.20
2022-07-29T07:35:48.440Z,2.28
2022-07-29T07:38:15.684Z,2.30
2022-07-29T07:40:43.280Z,2.20
2022-07-29T07:43:10.537Z,2.08
2022-07-29T07:45:38.463Z,1.90
2022-07-29T07:48:06.299Z,1.95
2022-07-29T07:50:33.637Z,2.33
2022-07-29T07:53:03.048Z,1.98
2022-07-29T07:55:38.355Z,2.15
2022-07-29T07:58:17.620Z,1.90
2022-07-29T08:00:45.055Z,2.13
2022-07-29T08:03:16.699Z,1.83
2022-07-29T08:05:44.751Z,2.05
2022-07-29T08:08:12.125Z,1.73
2022-07-29T08:10:54.761Z,2.13
2022-07-29T08:13:22.878Z,2.15
2022-07-29T08:15:58.569Z,2.05
2022-07-29T08:18:26.735Z,1.90
2022-07-29T08:20:54.200Z,2.15
2022-07-29T08:23:21.578Z,2.47
2022-07-29T08:25:50.157Z,2.08
2022-07-29T08:28:18.097Z,2.15
2022-07-29T08:30:45.886Z,2.13
2022-07-29T08:33:13.262Z,2.10
2022-07-29T08:35:41.146Z,2.28
2022-07-29T08:38:08.476Z,2.40
2022-07-29T08:40:35.805Z,2.50
2022-07-29T08:43:07.283Z,2.22
2022-07-29T08:45:53.152Z,1.80
2022-07-29T08:48:21.497Z,2.38
2022-07-29T08:50:49.993Z,2.05
2022-07-29T08:53:19.015Z,1.95
2022-07-29T08:55:51.344Z,2.78
2022-07-29T08:58:21.598Z,2.50
2022-07-29T09:00:57.914Z,2.10
2022-07-29T09:03:26.955Z,2.33
2022-07-29T09:05:54.594Z,2.17
2022-07-29T09:08:22.185Z,1.90
2022-07-29T09:10:50.206Z,2.13
2022-07-29T09:13:17.498Z,1.70
2022-07-29T09:15:45.951Z,2.67
2022-07-29T09:18:19.314Z,1.92
2022-07-29T09:21:16.499Z,2.08
2022-07-29T09:24:00.931Z,2.10
2022-07-29T09:26:32.037Z,1.80
2022-07-29T09:29:00.102Z,2.00
2022-07-29T09:31:37.803Z,2.25
2022-07-29T09:34:06.041Z,1.80
2022-07-29T09:36:40.068Z,1.67
2022-07-29T09:39:07.399Z,2.08
2022-07-29T09:41:48.641Z,2.05
2022-07-29T09:44:16.036Z,2.00
2022-07-29T09:46:54.780Z,2.25
2022-07-29T09:49:22.321Z,2.05
2022-07-29T09:51:49.751Z,3.03
2022-07-29T09:54:24.332Z,2.42
2022-07-29T09:56:51.897Z,2.75
2022-07-29T09:59:21.498Z,2.42
2022-07-29T10:01:51.044Z,2.03
2022-07-29T10:04:18.332Z,2.17
2022-07-29T10:07:03.893Z,2.60
2022-07-29T10:09:32.807Z,2.00
2022-07-29T10:12:10.060Z,1.80
2022-07-29T10:14:37.644Z,2.10
2022-07-29T10:17:05.867Z,2.00
2022-07-29T10:19:33.940Z,2.30
2022-07-29T10:22:02.326Z,2.28
2022-07-29T10:24:30.679Z,2.15
2022-07-29T10:26:58.494Z,2.35
2022-07-29T10:29:26.515Z,2.33
2022-07-29T10:32:05.984Z,2.20
2022-07-29T10:34:33.300Z,1.90
2022-07-29T10:37:23.174Z,2.20
2022-07-29T10:39:54.273Z,2.55
2022-07-29T10:45:12.159Z,1.90
2022-07-29T10:47:39.607Z,1.80
2022-07-29T10:50:11.681Z,1.88
2022-07-29T10:52:48.500Z,2.30
2022-07-29T10:55:35.769Z,2.63
2022-07-29T10:58:29.879Z,1.73
2022-07-29T11:00:57.657Z,2.15
2022-07-29T11:03:49.641Z,1.70
2022-07-29T11:06:26.375Z,1.70
2022-07-29T11:09:12.982Z,1.70
2022-07-29T11:11:47.726Z,3.28
2022-07-29T11:14:19.946Z,1.58
2022-07-29T11:17:01.753Z,1.80
2022-07-29T11:19:30.839Z,2.63
2022-07-29T11:21:58.748Z,1.95
2022-07-29T11:24:34.817Z,1.65
2022-07-29T11:27:13.195Z,2.00
2022-07-29T11:29:43.125Z,1.88
2022-07-29T11:32:18.450Z,1.60
2022-07-29T11:35:38.249Z,2.55
2022-07-29T11:38:31.636Z,2.45
2022-07-29T11:41:17.992Z,1.70
2022-07-29T11:43:50.714Z,2.03
2022-07-29T11:46:19.103Z,2.70
2022-07-29T11:48:52.797Z,1.70
2022-07-29T11:51:20.144Z,2.13
2022-07-29T11:54:05.232Z,1.92
2022-07-29T11:56:33.760Z,1.80
2022-07-29T11:59:08.525Z,2.38
2022-07-29T12:01:35.953Z,1.67
2022-07-29T12:04:07.772Z,1.92
2022-07-29T12:06:38.268Z,2.15
2022-07-29T12:09:14.510Z,1.75
2022-07-29T12:11:42.036Z,1.85
2022-07-29T12:14:26.101Z,2.20
2022-07-29T12:16:53.517Z,1.92
2022-07-29T12:19:22.639Z,1.98
2022-07-29T12:21:54.019Z,1.80
2022-07-29T12:24:26.930Z,2.03
2022-07-29T12:26:58.705Z,1.60
2022-07-29T12:29:35.620Z,1.88
2022-07-29T12:34:34.325Z,1.48
2022-07-29T12:37:02.367Z,1.45
2022-07-29T12:39:29.830Z,1.70
2022-07-29T12:42:04.457Z,1.40
2022-07-29T12:47:08.466Z,1.70
2022-07-29T12:49:38.006Z,1.85
2022-07-29T12:52:24.411Z,1.80
2022-07-29T12:54:51.717Z,2.00
2022-07-29T12:57:19.976Z,1.30
2022-07-29T13:00:00.123Z,1.60
2022-07-29T13:02:27.500Z,1.55
2022-07-29T13:04:58.980Z,2.25
2022-07-29T13:08:29.578Z,1.70
2022-07-29T13:10:19.599Z,1.92
2022-07-29T13:13:07.604Z,1.60
2022-07-29T13:15:35.160Z,2.00
2022-07-29T13:18:02.486Z,1.58
2022-07-29T13:20:30.761Z,1.65
2022-07-29T13:22:58.609Z,2.42
2022-07-29T13:25:30.645Z,1.70
2022-07-29T13:27:58.332Z,1.90
2022-07-29T13:30:25.820Z,1.65
2022-07-29T13:32:53.871Z,2.08
2022-07-29T13:35:21.922Z,2.05
2022-07-29T13:37:49.196Z,1.85
2022-07-29T13:40:19.287Z,1.70
2022-07-29T13:42:46.611Z,2.03
2022-07-29T13:45:14.400Z,2.10
2022-07-29T13:47:44.785Z,2.05
2022-07-29T13:50:15.122Z,2.22
2022-07-29T13:52:42.396Z,2.30
2022-07-29T13:55:09.930Z,1.90
2022-07-29T13:57:37.181Z,2.25
2022-07-29T14:00:04.708Z,1.70
2022-07-29T14:02:31.980Z,1.98
2022-07-29T14:05:02.765Z,2.08
2022-07-29T14:07:32.338Z,1.70
2022-07-29T14:09:59.624Z,1.70
2022-07-29T14:12:26.867Z,2.75
2022-07-29T14:14:54.167Z,1.63
2022-07-29T14:17:21.464Z,1.98
2022-07-29T14:19:48.882Z,1.90
2022-07-29T14:22:16.354Z,1.88
2022-07-29T14:24:43.739Z,1.63
2022-07-29T14:27:11.632Z,2.28
2022-07-29T14:29:39.391Z,2.28
2022-07-29T14:32:07.955Z,1.77
2022-07-29T14:34:36.207Z,2.45
2022-07-29T14:37:06.017Z,1.90
2022-07-29T14:39:33.420Z,1.98
2022-07-29T14:42:01.322Z,1.95
2022-07-29T14:44:32.256Z,2.33
2022-07-29T14:47:07.677Z,1.77
2022-07-29T14:49:35.841Z,1.83
2022-07-29T14:52:03.180Z,1.80
2022-07-29T14:54:30.485Z,1.63
2022-07-29T14:56:58.452Z,2.00
2022-07-29T14:59:26.365Z,2.25
2022-07-29T15:01:53.753Z,2.38
2022-07-29T15:04:21.220Z,1.75
2022-07-29T15:06:48.810Z,1.67
2022-07-29T15:09:16.101Z,1.50
2022-07-29T15:11:43.414Z,1.98
2022-07-29T15:14:10.764Z,2.13
2022-07-29T15:16:38.951Z,1.85
2022-07-29T15:19:06.383Z,1.80
2022-07-29T15:21:34.011Z,2.03
2022-07-29T15:24:01.394Z,1.60
2022-07-29T15:26:28.636Z,2.13
2022-07-29T15:28:57.061Z,2.05
2022-07-29T15:31:35.636Z,2.53
2022-07-29T15:34:06.318Z,1.70
2022-07-29T15:39:21.586Z,1.88
2022-07-29T15:41:49.089Z,1.90
2022-07-29T15:44:16.419Z,1.95
2022-07-29T15:47:02.872Z,2.10
2022-07-29T15:49:47.763Z,1.70
2022-07-29T15:52:17.034Z,2.10
2022-07-29T15:54:44.401Z,2.00
2022-07-29T15:57:11.926Z,1.90
2022-07-29T15:59:39.223Z,2.05
2022-07-29T16:02:06.589Z,1.80
2022-07-29T16:04:33.962Z,2.40
2022-07-29T16:07:01.498Z,1.88
2022-07-29T16:09:29.037Z,2.03
2022-07-29T16:11:56.706Z,2.22
2022-07-29T16:14:24.540Z,1.83
2022-07-29T16:16:56.657Z,2.55
2022-07-29T16:19:24.231Z,2.20
2022-07-29T16:21:51.478Z,2.25
2022-07-29T16:24:19.267Z,1.83
2022-07-29T16:26:46.561Z,1.70
2022-07-29T16:29:13.861Z,1.80
2022-07-29T16:31:41.176Z,1.90
2022-07-29T16:34:08.510Z,2.17
2022-07-29T16:36:35.769Z,1.60
2022-07-29T16:39:04.993Z,1.90
2022-07-29T16:41:32.528Z,2.60
2022-07-29T16:43:59.824Z,8.80
2022-07-29T16:46:27.147Z,5.05
2022-07-29T16:48:55.720Z,6.43
2022-07-29T16:51:23.487Z,5.88
2022-07-29T16:53:50.774Z,4.03
2022-07-29T16:56:18.029Z,3.22
2022-07-29T16:58:45.308Z,2.53
2022-07-29T17:01:12.799Z,1.88
2022-07-29T17:04:00.726Z,2.08
2022-07-29T17:06:29.568Z,2.90
2022-07-29T17:08:57.210Z,2.90
2022-07-29T17:11:52.530Z,2.88
2022-07-29T17:14:11.931Z,2.60
2022-07-29T17:16:39.256Z,2.15
2022-07-29T17:19:06.584Z,2.65
2022-07-29T17:21:33.849Z,3.72
2022-07-29T17:24:01.108Z,2.28
2022-07-29T17:26:28.438Z,2.00
2022-07-29T17:28:56.150Z,2.60
2022-07-29T17:31:23.538Z,1.85
2022-07-29T17:33:51.245Z,1.90
2022-07-29T17:36:24.515Z,2.13
2022-07-29T17:38:52.972Z,2.22
2022-07-29T17:41:20.395Z,2.05
2022-07-29T17:43:47.720Z,1.85
2022-07-29T17:46:15.187Z,2.17
2022-07-29T17:48:42.754Z,2.10
2022-07-29T17:51:13.087Z,2.53
2022-07-29T17:53:40.693Z,1.80
2022-07-29T17:56:08.096Z,2.20
2022-07-29T17:58:35.466Z,1.90
2022-07-29T18:01:02.785Z,2.25
2022-07-29T18:03:30.258Z,2.00
2022-07-29T18:05:57.525Z,2.50
2022-07-29T18:08:28.110Z,2.58
2022-07-29T18:10:55.860Z,2.05
2022-07-29T18:13:23.177Z,2.03
2022-07-29T18:15:50.586Z,2.72
2022-07-29T18:18:18.581Z,2.08
2022-07-29T18:20:46.437Z,2.80
2022-07-29T18:23:13.924Z,2.60
2022-07-29T18:25:41.256Z,1.98
2022-07-29T18:28:08.587Z,2.22
2022-07-29T18:30:37.910Z,2.13
2022-07-29T18:33:20.642Z,2.20
2022-07-29T18:35:49.935Z,2.03
2022-07-29T18:38:17.407Z,2.53
2022-07-29T18:40:45.922Z,2.50
2022-07-29T18:43:13.804Z,2.50
2022-07-29T18:45:42.374Z,2.20
2022-07-29T18:48:12.995Z,2.50
2022-07-29T18:50:40.701Z,3.20
2022-07-29T18:53:07.994Z,3.70
2022-07-29T18:55:35.301Z,2.25
2022-07-29T18:58:03.186Z,2.40
2022-07-29T19:00:30.656Z,3.63
2022-07-29T19:02:58.058Z,7.88
2022-07-29T19:05:25.542Z,7.85
2022-07-29T19:07:54.736Z,4.50
2022-07-29T19:10:22.157Z,4.00
2022-07-29T19:12:49.438Z,3.47
2022-07-29T19:15:20.243Z,2.67
2022-07-29T19:17:48.526Z,3.17
2022-07-29T19:20:16.272Z,2.25
2022-07-29T19:22:43.568Z,1.98
2022-07-29T19:25:11.016Z,2.05
2022-07-29T19:27:38.382Z,2.33
2022-07-29T19:30:07.035Z,1.80
2022-07-29T19:32:34.346Z,2.28
2022-07-29T19:35:20.402Z,1.95
2022-07-29T19:37:47.665Z,2.15
2022-07-29T19:40:16.248Z,2.10
2022-07-29T19:42:44.024Z,1.83
2022-07-29T19:45:11.844Z,2.45
2022-07-29T19:47:39.235Z,3.05
2022-07-29T19:50:06.764Z,2.25
2022-07-29T19:52:34.042Z,1.98
2022-07-29T19:55:07.074Z,2.22
2022-07-29T19:57:40.747Z,2.13
2022-07-29T20:00:11.065Z,2.15
2022-07-29T20:02:39.500Z,2.10
2022-07-29T20:05:07.251Z,2.40
2022-07-29T20:07:34.937Z,2.00
2022-07-29T20:10:02.233Z,2.10
2022-07-29T20:12:29.456Z,2.50
2022-07-29T20:14:56.804Z,2.40
2022-07-29T20:17:24.096Z,2.35
2022-07-29T20:19:51.867Z,2.70
2022-07-29T20:22:21.308Z,3.03
2022-07-29T20:24:49.164Z,2.13
2022-07-29T20:27:16.443Z,2.47
2022-07-29T20:29:43.809Z,2.38
2022-07-29T20:32:12.496Z,2.40
2022-07-29T20:34:42.837Z,2.63
2022-07-29T20:37:11.610Z,1.98
2022-07-29T20:39:39.381Z,2.47
2022-07-29T20:42:07.386Z,2.15
2022-07-29T20:44:34.715Z,2.50
2022-07-29T20:47:03.097Z,1.90
2022-07-29T20:49:30.985Z,2.35
2022-07-29T20:51:58.495Z,2.15
2022-07-29T20:54:25.812Z,2.83
2022-07-29T20:56:53.183Z,2.58
2022-07-29T20:59:20.479Z,2.75
2022-07-29T21:01:47.837Z,1.88
2022-07-29T21:04:16.627Z,2.75
2022-07-29T21:06:43.861Z,2.55
2022-07-29T21:09:11.393Z,2.50
2022-07-29T21:11:44.428Z,2.30
2022-07-29T21:14:28.850Z,2.60
2022-07-29T21:16:56.830Z,3.17
2022-07-29T21:19:24.370Z,2.63
2022-07-29T21:21:51.594Z,2.40
2022-07-29T21:24:19.774Z,2.50
2022-07-29T21:27:11.086Z,2.90
2022-07-29T21:29:34.307Z,2.53
2022-07-29T21:32:01.542Z,2.38
2022-07-29T21:34:28.824Z,2.22
2022-07-29T21:36:56.056Z,2.83
2022-07-29T21:39:23.421Z,2.15
2022-07-29T21:41:50.674Z,2.60
2022-07-29T21:44:18.949Z,2.90
2022-07-29T21:46:46.178Z,2.80
2022-07-29T21:49:13.486Z,2.85
2022-07-29T21:51:40.848Z,2.38
2022-07-29T21:54:08.177Z,3.40
2022-07-29T21:56:35.784Z,3.15
2022-07-29T21:59:03.694Z,2.65
2022-07-29T22:01:39.070Z,2.55
2022-07-29T22:04:06.920Z,3.00
2022-07-29T22:06:34.613Z,3.30
2022-07-29T22:09:01.941Z,3.10
2022-07-29T22:11:29.489Z,2.90
2022-07-29T22:13:56.823Z,2.60
2022-07-29T22:16:24.143Z,3.95
2022-07-29T22:18:51.440Z,3.13
2022-07-29T22:21:18.843Z,3.40
2022-07-29T22:23:46.265Z,2.80
2022-07-29T22:26:13.526Z,2.67
2022-07-29T22:28:40.968Z,3.42
2022-07-29T22:31:08.281Z,2.88
2022-07-29T22:33:35.703Z,3.55
2022-07-29T22:36:02.955Z,2.83
2022-07-29T22:38:30.240Z,2.72
2022-07-29T22:40:58.789Z,3.17
2022-07-29T22:43:28.695Z,3.05
2022-07-29T22:45:55.996Z,2.67
2022-07-29T22:48:23.262Z,3.28
2022-07-29T22:50:50.521Z,3.00
2022-07-29T22:53:17.829Z,3.35
2022-07-29T22:55:46.095Z,2.58
2022-07-29T22:58:13.323Z,2.50
2022-07-29T23:00:41.270Z,2.42
2022-07-29T23:03:08.509Z,2.50
2022-07-29T23:05:35.855Z,3.17
2022-07-29T23:08:03.151Z,3.05
2022-07-29T23:10:30.473Z,3.00
2022-07-29T23:12:57.915Z,2.80
2022-07-29T23:15:25.192Z,3.20
2022-07-29T23:17:52.433Z,2.92
2022-07-29T23:20:19.717Z,2.75
2022-07-29T23:22:47.008Z,2.83
2022-07-29T23:25:14.403Z,2.75
2022-07-29T23:27:41.799Z,2.83
2022-07-29T23:30:09.458Z,2.65
2022-07-29T23:32:36.837Z,2.35
2022-07-29T23:35:05.579Z,2.35
2022-07-29T23:37:32.847Z,2.42
2022-07-29T23:40:00.196Z,2.40
2022-07-29T23:42:27.436Z,2.00
2022-07-29T23:44:54.705Z,2.75
2022-07-29T23:47:22.088Z,3.00
2022-07-29T23:49:50.120Z,2.55
2022-07-29T23:52:18.015Z,2.40
2022-07-29T23:54:45.369Z,2.67
2022-07-29T23:57:12.649Z,2.60
2022-07-29T23:59:39.971Z,2.13
